createdAt,value
2022-08-07T00:02:37.252Z,22.05
2022-08-07T00:04:36.336Z,21.92
2022-08-07T00:07:15.981Z,21.94
2022-08-07T00:10:04.683Z,21.99
2022-08-07T00:12:56.923Z,21.95
2022-08-07T00:18:02.528Z,21.94
2022-08-07T00:20:40.373Z,21.87
2022-08-07T00:23:09.047Z,21.90
2022-08-07T00:25:41.503Z,21.89
2022-08-07T00:28:12.785Z,21.87
2022-08-07T00:33:26.607Z,22.03
2022-08-07T00:35:58.557Z,21.86
2022-08-07T00:38:31.812Z,21.65
2022-08-07T00:41:04.956Z,21.38
2022-08-07T00:44:02.024Z,21.39
2022-08-07T00:46:36.415Z,21.41
2022-08-07T00:49:09.210Z,21.30
2022-08-07T00:51:57.054Z,21.29
2022-08-07T00:54:30.832Z,21.24
2022-08-07T00:57:02.796Z,21.23
2022-08-07T00:59:37.296Z,21.32
2022-08-07T01:02:27.829Z,21.29
2022-08-07T01:05:01.082Z,21.31
2022-08-07T01:07:31.552Z,21.33
2022-08-07T01:10:06.252Z,21.17
2022-08-07T01:12:53.701Z,21.53
2022-08-07T01:18:10.156Z,21.16
2022-08-07T01:20:44.351Z,21.10
2022-08-07T01:23:37.897Z,21.05
2022-08-07T01:26:12.918Z,21.04
2022-08-07T01:28:45.940Z,21.08
2022-08-07T01:31:18.185Z,21.05
2022-08-07T01:33:55.610Z,20.97
2022-08-07T01:36:33.564Z,21.00
2022-08-07T01:39:10.204Z,20.99
2022-08-07T01:42:07.892Z,21.02
2022-08-07T01:44:47.950Z,21.09
2022-08-07T01:48:19.533Z,21.21
2022-08-07T01:50:10.941Z,21.17
2022-08-07T01:52:49.679Z,21.12
2022-08-07T01:58:28.912Z,20.95
2022-08-07T02:01:09.767Z,21.05
2022-08-07T02:06:32.947Z,21.10
2022-08-07T02:12:03.667Z,20.95
2022-08-07T02:17:06.222Z,20.99
2022-08-07T02:20:04.605Z,20.91
2022-08-07T02:25:13.721Z,20.94
2022-08-07T02:27:51.217Z,20.91
2022-08-07T02:30:22.976Z,20.95
2022-08-07T02:36:30.963Z,20.78
2022-08-07T02:38:22.717Z,20.79
2022-08-07T02:40:59.436Z,20.81
2022-08-07T02:43:29.826Z,20.71
2022-08-07T02:46:03.670Z,20.69
2022-08-07T02:48:34.436Z,20.55
2022-08-07T02:51:07.723Z,20.35
2022-08-07T02:54:09.809Z,20.29
2022-08-07T02:56:43.837Z,20.40
2022-08-07T02:59:24.164Z,20.38
2022-08-07T03:01:57.665Z,20.29
2022-08-07T03:04:31.533Z,20.38
2022-08-07T03:07:10.326Z,20.48
2022-08-07T03:09:49.380Z,20.47
2022-08-07T03:12:30.736Z,20.55
2022-08-07T03:15:02.486Z,20.47
2022-08-07T03:17:54.045Z,20.52
2022-08-07T03:20:25.038Z,20.51
2022-08-07T03:22:55.612Z,20.43
2022-08-07T03:28:37.366Z,20.53
2022-08-07T03:33:58.930Z,20.52
2022-08-07T03:36:33.014Z,20.68
2022-08-07T03:39:06.765Z,20.52
2022-08-07T03:41:42.006Z,20.45
2022-08-07T03:44:31.903Z,20.49
2022-08-07T03:47:13.854Z,20.34
2022-08-07T03:49:47.729Z,20.32
2022-08-07T03:55:17.843Z,20.37
2022-08-07T03:58:33.395Z,20.47
2022-08-07T04:03:49.500Z,20.37
2022-08-07T04:06:37.099Z,20.31
2022-08-07T04:09:06.366Z,20.32
2022-08-07T04:12:25.456Z,20.36
2022-08-07T04:14:37.983Z,20.29
2022-08-07T04:17:20.243Z,20.29
2022-08-07T04:19:56.805Z,20.27
2022-08-07T04:22:33.545Z,20.29
2022-08-07T04:25:08.877Z,20.33
2022-08-07T04:27:59.287Z,20.30
2022-08-07T04:30:39.319Z,20.45
2022-08-07T04:33:27.069Z,20.45
2022-08-07T04:36:17.864Z,20.53
2022-08-07T04:38:54.992Z,20.58
2022-08-07T04:41:27.304Z,20.61
2022-08-07T04:44:12.566Z,20.69
2022-08-07T04:47:04.261Z,20.72
2022-08-07T04:49:58.147Z,20.80
2022-08-07T04:52:51.127Z,20.75
2022-08-07T04:58:09.996Z,20.82
2022-08-07T04:58:49.650Z,20.90
2022-08-07T05:01:21.071Z,20.92
2022-08-07T05:04:08.856Z,21.04
2022-08-07T05:09:45.909Z,21.11
2022-08-07T05:12:26.859Z,21.13
2022-08-07T05:15:04.851Z,21.26
2022-08-07T05:17:51.643Z,21.33
2022-08-07T05:20:35.413Z,21.54
2022-08-07T05:23:15.613Z,21.59
2022-08-07T05:26:10.925Z,21.57
2022-08-07T05:28:48.453Z,21.62
2022-08-07T05:31:22.236Z,21.74
2022-08-07T05:34:04.611Z,22.09
2022-08-07T05:36:39.152Z,21.87
2022-08-07T05:40:07.157Z,22.04
2022-08-07T05:42:05.270Z,22.05
2022-08-07T05:44:52.836Z,22.22
2022-08-07T05:48:00.311Z,22.31
2022-08-07T05:50:31.373Z,22.38
2022-08-07T05:54:13.487Z,22.65
2022-08-07T05:56:06.082Z,22.56
2022-08-07T05:58:39.207Z,22.74
2022-08-07T06:01:11.761Z,22.74
2022-08-07T06:03:53.372Z,22.57
2022-08-07T06:09:22.794Z,22.89
2022-08-07T06:12:17.566Z,23.03
2022-08-07T06:14:52.118Z,23.06
2022-08-07T06:17:30.550Z,23.15
2022-08-07T06:20:25.415Z,23.24
2022-08-07T06:23:46.645Z,23.26
2022-08-07T06:28:28.574Z,23.48
2022-08-07T06:33:30.247Z,23.44
2022-08-07T06:36:12.937Z,23.42
2022-08-07T06:38:58.875Z,23.52
2022-08-07T06:42:01.732Z,23.57
2022-08-07T06:44:34.086Z,23.70
2022-08-07T06:49:59.636Z,23.74
2022-08-07T06:52:36.465Z,23.71
2022-08-07T06:57:47.694Z,23.83
2022-08-07T07:00:26.582Z,23.88
2022-08-07T07:02:58.178Z,23.89
2022-08-07T07:10:54.653Z,24.25
2022-08-07T07:13:55.338Z,24.42
2022-08-07T07:16:30.452Z,24.30
2022-08-07T07:19:54.712Z,24.36
2022-08-07T07:22:11.762Z,24.42
2022-08-07T07:24:58.359Z,24.72
2022-08-07T07:27:35.606Z,24.75
2022-08-07T07:30:37.832Z,24.78
2022-08-07T07:36:04.141Z,24.94
2022-08-07T07:41:11.126Z,24.84
2022-08-07T07:43:47.836Z,24.85
2022-08-07T07:46:54.231Z,25.12
2022-08-07T07:50:36.254Z,25.07
2022-08-07T07:52:25.757Z,24.97
2022-08-07T07:55:04.538Z,25.01
2022-08-07T07:58:06.518Z,25.16
2022-08-07T08:00:35.842Z,25.26
2022-08-07T08:03:16.989Z,25.36
2022-08-07T08:08:37.011Z,25.58
2022-08-07T08:13:54.548Z,25.71
2022-08-07T08:22:17.363Z,26.01
2022-08-07T08:25:24.988Z,26.24
2022-08-07T08:28:10.644Z,26.22
2022-08-07T08:30:51.014Z,26.39
2022-08-07T08:33:33.138Z,26.59
2022-08-07T08:36:04.667Z,26.62
2022-08-07T08:38:41.402Z,26.84
2022-08-07T08:41:31.487Z,26.80
2022-08-07T08:44:29.312Z,26.68
2022-08-07T08:47:11.274Z,26.79
2022-08-07T08:50:02.447Z,26.91
2022-08-07T08:52:51.610Z,27.07
2022-08-07T08:55:54.371Z,27.15
2022-08-07T08:58:54.606Z,27.15
2022-08-07T09:01:29.763Z,27.11
2022-08-07T09:04:17.106Z,27.14
2022-08-07T09:07:01.672Z,27.05
2022-08-07T09:16:21.572Z,26.88
2022-08-07T09:19:07.283Z,27.10
2022-08-07T09:22:39.379Z,26.79
2022-08-07T09:25:17.931Z,26.89
2022-08-07T09:30:55.022Z,27.24
2022-08-07T09:33:57.954Z,27.56
2022-08-07T09:36:37.323Z,27.76
2022-08-07T09:39:27.481Z,27.89
2022-08-07T09:42:17.215Z,28.14
2022-08-07T09:47:27.671Z,28.27
2022-08-07T09:48:01.233Z,28.52
2022-08-07T09:50:35.762Z,28.66
2022-08-07T09:53:12.502Z,28.56
2022-08-07T09:56:03.290Z,28.37
2022-08-07T09:58:57.958Z,28.41
2022-08-07T10:01:53.779Z,28.38
2022-08-07T10:04:38.062Z,28.25
2022-08-07T10:10:21.323Z,28.16
2022-08-07T10:13:15.751Z,28.23
2022-08-07T10:16:31.021Z,28.56
2022-08-07T10:19:23.515Z,28.56
2022-08-07T10:22:15.583Z,28.39
2022-08-07T10:25:01.248Z,28.15
2022-08-07T10:27:45.853Z,28.24
2022-08-07T10:30:47.837Z,28.46
2022-08-07T10:34:05.951Z,28.72
2022-08-07T10:39:19.515Z,29.24
2022-08-07T10:42:09.225Z,29.25
2022-08-07T10:44:59.970Z,29.38
2022-08-07T10:47:53.906Z,29.49
2022-08-07T10:50:34.405Z,29.46
2022-08-07T10:53:12.778Z,29.68
2022-08-07T10:55:55.963Z,29.67
2022-08-07T10:58:59.648Z,29.96
2022-08-07T11:02:04.740Z,30.21
2022-08-07T11:05:14.723Z,30.37
2022-08-07T11:07:58.809Z,30.47
2022-08-07T11:10:40.012Z,30.66
2022-08-07T11:14:45.763Z,30.60
2022-08-07T11:16:40.569Z,30.85
2022-08-07T11:19:21.450Z,30.98
2022-08-07T11:24:55.239Z,30.83
2022-08-07T11:28:01.326Z,30.49
2022-08-07T11:30:41.990Z,30.32
2022-08-07T11:33:58.698Z,30.24
2022-08-07T11:36:13.916Z,30.50
2022-08-07T11:38:55.644Z,30.70
2022-08-07T11:42:01.595Z,30.80
2022-08-07T11:44:35.459Z,31.10
2022-08-07T11:47:09.962Z,31.29
2022-08-07T11:50:32.990Z,31.37
2022-08-07T11:53:01.681Z,31.48
2022-08-07T11:56:15.490Z,31.40
2022-08-07T12:01:59.479Z,30.94
2022-08-07T12:04:46.663Z,30.57
2022-08-07T12:07:26.938Z,30.33
2022-08-07T12:10:05.851Z,30.20
2022-08-07T12:12:41.641Z,30.39
2022-08-07T12:15:17.141Z,30.73
2022-08-07T12:18:16.585Z,31.16
2022-08-07T12:24:07.707Z,31.29
2022-08-07T12:26:49.598Z,31.19
2022-08-07T12:29:37.177Z,31.15
2022-08-07T12:32:16.357Z,31.10
2022-08-07T12:42:32.314Z,31.62
2022-08-07T12:45:08.018Z,31.44
2022-08-07T12:47:54.742Z,31.28
2022-08-07T12:54:02.675Z,31.36
2022-08-07T12:56:43.129Z,31.35
2022-08-07T12:59:24.384Z,31.38
2022-08-07T13:02:25.041Z,31.15
2022-08-07T13:05:10.341Z,31.16
2022-08-07T13:11:06.740Z,31.25
2022-08-07T13:13:48.097Z,31.35
2022-08-07T13:16:27.084Z,31.69
2022-08-07T13:19:04.544Z,32.07
2022-08-07T13:21:57.555Z,32.58
2022-08-07T13:24:43.988Z,32.90
2022-08-07T13:30:19.654Z,33.37
2022-08-07T13:33:06.691Z,33.68
2022-08-07T13:36:05.364Z,33.79
2022-08-07T13:38:37.972Z,33.55
2022-08-07T13:46:49.522Z,33.09
2022-08-07T13:50:32.956Z,33.12
2022-08-07T13:52:31.779Z,33.08
2022-08-07T13:55:04.909Z,33.10
2022-08-07T13:57:38.961Z,33.13
2022-08-07T14:03:14.306Z,33.54
2022-08-07T14:05:59.845Z,33.84
2022-08-07T14:08:33.568Z,33.99
2022-08-07T14:11:14.483Z,33.78
2022-08-07T14:13:57.076Z,33.76
2022-08-07T14:20:42.000Z,34.34
2022-08-07T14:22:34.571Z,34.32
2022-08-07T14:25:11.129Z,34.22
2022-08-07T14:28:11.493Z,34.18
2022-08-07T14:30:40.615Z,34.26
2022-08-07T14:33:16.410Z,34.32
2022-08-07T14:35:56.023Z,34.20
2022-08-07T14:38:31.417Z,34.25
2022-08-07T14:41:05.982Z,34.20
2022-08-07T14:43:58.262Z,34.37
2022-08-07T14:46:38.154Z,34.68
2022-08-07T14:49:56.789Z,34.49
2022-08-07T14:52:23.359Z,34.71
2022-08-07T14:54:59.659Z,34.82
2022-08-07T14:57:54.639Z,34.95
2022-08-07T15:00:31.153Z,35.18
2022-08-07T15:03:19.339Z,35.33
2022-08-07T15:05:54.876Z,35.56
2022-08-07T15:08:50.345Z,35.76
2022-08-07T15:14:22.304Z,35.39
2022-08-07T15:16:55.966Z,34.86
2022-08-07T15:22:31.461Z,33.86
2022-08-07T15:25:17.521Z,33.45
2022-08-07T15:28:32.124Z,33.09
2022-08-07T15:31:05.135Z,32.78
2022-08-07T15:33:42.989Z,32.63
2022-08-07T15:36:13.573Z,32.49
2022-08-07T15:39:10.633Z,32.61
2022-08-07T15:44:51.933Z,33.20
2022-08-07T15:50:03.830Z,33.39
2022-08-07T15:52:37.412Z,33.70
2022-08-07T15:55:11.615Z,33.95
2022-08-07T15:57:49.450Z,34.11
2022-08-07T16:00:35.163Z,34.38
2022-08-07T16:05:48.693Z,34.81
2022-08-07T16:10:58.651Z,35.41
2022-08-07T16:14:03.164Z,35.33
2022-08-07T16:22:54.915Z,35.62
2022-08-07T16:25:54.141Z,35.64
2022-08-07T16:30:07.781Z,35.75
2022-08-07T16:31:50.820Z,35.82
2022-08-07T16:34:33.724Z,35.63
2022-08-07T16:38:05.229Z,35.61
2022-08-07T16:41:01.707Z,35.53
2022-08-07T16:47:16.353Z,35.46
2022-08-07T16:50:26.873Z,35.48
2022-08-07T16:53:48.347Z,35.58
2022-08-07T16:56:13.312Z,35.58
2022-08-07T16:59:11.294Z,35.63
2022-08-07T17:01:41.774Z,35.69
2022-08-07T17:04:15.443Z,36.53
2022-08-07T17:07:16.702Z,35.75
2022-08-07T17:10:05.980Z,35.73
2022-08-07T17:12:52.854Z,35.72
2022-08-07T17:15:44.499Z,35.86
2022-08-07T17:18:29.439Z,36.01
2022-08-07T17:20:59.589Z,35.87
2022-08-07T17:23:37.050Z,35.87
2022-08-07T17:26:23.324Z,35.93
2022-08-07T17:29:09.037Z,35.81
2022-08-07T17:32:02.513Z,35.88
2022-08-07T17:34:43.695Z,35.86
2022-08-07T17:38:05.715Z,35.81
2022-08-07T17:40:44.656Z,35.76
2022-08-07T17:44:01.621Z,35.61
2022-08-07T17:46:40.221Z,35.43
2022-08-07T17:49:23.376Z,35.27
2022-08-07T17:55:12.953Z,35.00
2022-08-07T18:00:34.753Z,34.52
2022-08-07T18:04:04.141Z,34.39
2022-08-07T18:10:04.683Z,33.94
2022-08-07T18:12:30.217Z,33.55
2022-08-07T18:15:08.786Z,33.14
2022-08-07T18:18:39.941Z,32.87
2022-08-07T18:21:04.455Z,32.50
2022-08-07T18:23:42.069Z,32.10
2022-08-07T18:30:06.735Z,31.92
2022-08-07T18:32:21.235Z,31.48
2022-08-07T18:35:04.362Z,31.18
2022-08-07T18:40:42.807Z,30.63
2022-08-07T18:43:36.856Z,30.48
2022-08-07T18:46:27.510Z,30.34
2022-08-07T18:50:05.526Z,30.12
2022-08-07T18:52:51.941Z,29.97
2022-08-07T18:58:51.341Z,29.61
2022-08-07T19:02:18.841Z,29.44
2022-08-07T19:04:57.712Z,29.22
2022-08-07T19:07:51.998Z,28.95
2022-08-07T19:10:49.837Z,30.51
2022-08-07T19:17:00.561Z,28.67
2022-08-07T19:19:32.105Z,28.49
2022-08-07T19:22:14.873Z,28.31
2022-08-07T19:24:52.780Z,28.10
2022-08-07T19:31:00.841Z,28.18
2022-08-07T19:33:15.388Z,28.05
2022-08-07T19:36:03.133Z,27.88
2022-08-07T19:38:41.495Z,27.82
2022-08-07T19:41:44.533Z,27.71
2022-08-07T19:47:30.968Z,27.61
2022-08-07T19:52:58.234Z,27.42
2022-08-07T19:55:56.603Z,27.36
2022-08-07T19:58:28.370Z,27.29
2022-08-07T20:03:36.422Z,27.13
2022-08-07T20:06:15.335Z,27.04
2022-08-07T20:09:04.316Z,26.97
2022-08-07T20:12:22.928Z,26.88
2022-08-07T20:14:53.658Z,26.97
2022-08-07T20:17:31.504Z,26.92
2022-08-07T20:20:09.566Z,26.77
2022-08-07T20:22:50.445Z,26.59
2022-08-07T20:25:26.135Z,26.47
2022-08-07T20:28:12.184Z,26.57
2022-08-07T20:31:01.033Z,28.84
2022-08-07T20:33:48.187Z,28.38
2022-08-07T20:36:32.028Z,30.48
2022-08-07T20:39:31.147Z,26.83
2022-08-07T20:42:09.651Z,26.16
2022-08-07T20:44:52.977Z,26.29
2022-08-07T20:50:20.662Z,27.64
2022-08-07T20:52:55.541Z,25.95
2022-08-07T20:55:37.240Z,25.81
2022-08-07T21:00:57.211Z,25.76
2022-08-07T21:06:28.143Z,25.50
2022-08-07T21:09:13.641Z,25.32
2022-08-07T21:11:50.491Z,25.73
2022-08-07T21:14:32.047Z,25.35
2022-08-07T21:20:29.509Z,25.05
2022-08-07T21:23:30.763Z,25.16
2022-08-07T21:26:10.416Z,24.99
2022-08-07T21:34:32.059Z,24.71
2022-08-07T21:37:07.198Z,24.82
2022-08-07T21:39:54.900Z,24.83
2022-08-07T21:42:42.303Z,24.75
2022-08-07T21:46:07.725Z,24.67
2022-08-07T21:48:29.012Z,24.77
2022-08-07T21:51:20.442Z,24.70
2022-08-07T21:53:56.301Z,24.78
2022-08-07T21:56:49.188Z,24.66
2022-08-07T21:59:25.448Z,24.62
2022-08-07T22:02:07.098Z,24.49
2022-08-07T22:04:53.454Z,24.44
2022-08-07T22:10:05.873Z,24.47
2022-08-07T22:12:39.885Z,24.31
2022-08-07T22:16:38.396Z,24.43
2022-08-07T22:18:12.957Z,24.33
2022-08-07T22:20:53.006Z,24.29
2022-08-07T22:23:27.803Z,24.24
2022-08-07T22:26:05.803Z,24.25
2022-08-07T22:32:00.042Z,24.30
2022-08-07T22:34:49.775Z,24.26
2022-08-07T22:40:30.465Z,24.35
2022-08-07T22:43:08.150Z,24.24
2022-08-07T22:46:21.288Z,24.11
2022-08-07T22:49:09.425Z,24.19
2022-08-07T22:51:57.631Z,24.06
2022-08-07T22:54:48.965Z,23.99
2022-08-07T22:57:42.405Z,24.01
2022-08-07T23:00:17.089Z,23.93
2022-08-07T23:03:10.912Z,25.97
2022-08-07T23:06:09.606Z,24.01
2022-08-07T23:08:53.046Z,23.93
2022-08-07T23:11:41.593Z,23.83
2022-08-07T23:14:37.565Z,23.89
2022-08-07T23:17:45.180Z,23.83
2022-08-07T23:20:55.985Z,23.76
2022-08-07T23:24:06.857Z,23.56
2022-08-07T23:26:50.331Z,23.50
2022-08-07T23:30:36.228Z,23.52
2022-08-07T23:34:34.330Z,23.44
2022-08-07T23:35:50.206Z,23.54
2022-08-07T23:38:42.733Z,23.87
2022-08-07T23:41:33.417Z,23.60
2022-08-07T23:44:24.809Z,23.55
2022-08-07T23:50:30.153Z,23.43
2022-08-07T23:53:08.591Z,23.41
2022-08-07T23:55:55.530Z,23.35
2022-08-07T23:58:38.612Z,23.34
